sensor_id;sensor_type;location;lat;lon;timestamp;P1;durP1;ratioP1;P2;durP2;ratioP2
30398;SDS011;17195;50.838;7.214;2023-01-26T00:01:10;38.67;;;17.30;;
30398;SDS011;17195;50.838;7.214;2023-01-26T00:03:38;36.47;;;16.52;;
30398;SDS011;17195;50.838;7.214;2023-01-26T00:06:04;33.97;;;15.57;;
30398;SDS011;17195;50.838;7.214;2023-01-26T00:08:40;36.53;;;16.80;;
30398;SDS011;17195;50.838;7.214;2023-01-26T00:11:08;37.15;;;16.42;;
30398;SDS011;17195;50.838;7.214;2023-01-26T00:13:35;35.05;;;15.65;;
30398;SDS011;17195;50.838;7.214;2023-01-26T00:16:01;36.75;;;16.42;;
30398;SDS011;17195;50.838;7.214;2023-01-26T00:18:28;39.30;;;17.13;;
30398;SDS011;17195;50.838;7.214;2023-01-26T00:20:58;39.88;;;18.55;;
30398;SDS011;17195;50.838;7.214;2023-01-26T00:23:25;36.13;;;17.60;;
30398;SDS011;17195;50.838;7.214;2023-01-26T00:25:52;39.10;;;17.25;;
30398;SDS011;17195;50.838;7.214;2023-01-26T00:28:18;40.15;;;16.95;;
30398;SDS011;17195;50.838;7.214;2023-01-26T00:30:43;36.28;;;16.27;;
30398;SDS011;17195;50.838;7.214;2023-01-26T00:33:09;41.17;;;17.05;;
30398;SDS011;17195;50.838;7.214;2023-01-26T00:35:34;38.33;;;17.05;;
30398;SDS011;17195;50.838;7.214;2023-01-26T00:38:00;37.88;;;17.08;;
30398;SDS011;17195;50.838;7.214;2023-01-26T00:40:25;42.50;;;17.70;;
30398;SDS011;17195;50.838;7.214;2023-01-26T00:42:51;45.53;;;18.65;;
30398;SDS011;17195;50.838;7.214;2023-01-26T00:45:18;43.80;;;18.02;;
30398;SDS011;17195;50.838;7.214;2023-01-26T00:47:47;44.92;;;19.45;;
30398;SDS011;17195;50.838;7.214;2023-01-26T00:50:12;55.92;;;20.58;;
30398;SDS011;17195;50.838;7.214;2023-01-26T00:52:38;53.83;;;20.58;;
30398;SDS011;17195;50.838;7.214;2023-01-26T00:55:04;58.95;;;21.40;;
30398;SDS011;17195;50.838;7.214;2023-01-26T00:57:29;53.13;;;20.70;;
30398;SDS011;17195;50.838;7.214;2023-01-26T00:59:55;50.40;;;20.35;;
30398;SDS011;17195;50.838;7.214;2023-01-26T01:02:21;50.55;;;19.95;;
30398;SDS011;17195;50.838;7.214;2023-01-26T01:04:46;54.60;;;22.38;;
30398;SDS011;17195;50.838;7.214;2023-01-26T01:07:12;54.47;;;21.40;;
30398;SDS011;17195;50.838;7.214;2023-01-26T01:09:37;60.10;;;21.85;;
30398;SDS011;17195;50.838;7.214;2023-01-26T01:12:03;63.67;;;23.70;;
30398;SDS011;17195;50.838;7.214;2023-01-26T01:14:29;54.92;;;21.58;;
30398;SDS011;17195;50.838;7.214;2023-01-26T01:16:55;57.08;;;23.00;;
30398;SDS011;17195;50.838;7.214;2023-01-26T01:19:20;55.30;;;22.30;;
30398;SDS011;17195;50.838;7.214;2023-01-26T01:21:46;64.63;;;23.15;;
30398;SDS011;17195;50.838;7.214;2023-01-26T01:24:11;58.33;;;22.23;;
30398;SDS011;17195;50.838;7.214;2023-01-26T01:26:37;60.38;;;24.23;;
30398;SDS011;17195;50.838;7.214;2023-01-26T01:29:03;56.92;;;22.73;;
30398;SDS011;17195;50.838;7.214;2023-01-26T01:31:29;68.15;;;24.42;;
30398;SDS011;17195;50.838;7.214;2023-01-26T01:33:55;67.03;;;24.73;;
30398;SDS011;17195;50.838;7.214;2023-01-26T01:36:21;73.47;;;25.02;;
30398;SDS011;17195;50.838;7.214;2023-01-26T01:38:48;65.55;;;25.60;;
30398;SDS011;17195;50.838;7.214;2023-01-26T01:41:15;68.93;;;23.83;;
30398;SDS011;17195;50.838;7.214;2023-01-26T01:43:43;67.00;;;23.70;;
30398;SDS011;17195;50.838;7.214;2023-01-26T01:48:42;70.78;;;24.85;;
30398;SDS011;17195;50.838;7.214;2023-01-26T01:51:24;71.30;;;25.55;;
30398;SDS011;17195;50.838;7.214;2023-01-26T01:53:57;79.07;;;27.13;;
30398;SDS011;17195;50.838;7.214;2023-01-26T01:56:28;77.63;;;26.40;;
30398;SDS011;17195;50.838;7.214;2023-01-26T01:58:56;75.47;;;27.45;;
30398;SDS011;17195;50.838;7.214;2023-01-26T02:01:23;74.57;;;26.88;;
30398;SDS011;17195;50.838;7.214;2023-01-26T02:03:49;72.75;;;27.42;;
30398;SDS011;17195;50.838;7.214;2023-01-26T02:06:20;81.90;;;27.40;;
30398;SDS011;17195;50.838;7.214;2023-01-26T02:08:51;82.07;;;26.40;;
30398;SDS011;17195;50.838;7.214;2023-01-26T02:11:19;76.63;;;26.67;;
30398;SDS011;17195;50.838;7.214;2023-01-26T02:13:59;76.45;;;27.00;;
30398;SDS011;17195;50.838;7.214;2023-01-26T02:16:26;80.13;;;27.45;;
30398;SDS011;17195;50.838;7.214;2023-01-26T02:18:52;81.72;;;28.00;;
30398;SDS011;17195;50.838;7.214;2023-01-26T02:21:18;84.05;;;29.35;;
30398;SDS011;17195;50.838;7.214;2023-01-26T02:23:48;84.55;;;27.80;;
30398;SDS011;17195;50.838;7.214;2023-01-26T02:26:24;83.78;;;28.17;;
30398;SDS011;17195;50.838;7.214;2023-01-26T02:28:52;75.82;;;26.42;;
30398;SDS011;17195;50.838;7.214;2023-01-26T02:31:18;88.15;;;29.70;;
30398;SDS011;17195;50.838;7.214;2023-01-26T02:33:45;86.75;;;29.80;;
30398;SDS011;17195;50.838;7.214;2023-01-26T02:36:32;92.00;;;30.00;;
30398;SDS011;17195;50.838;7.214;2023-01-26T02:41:41;84.45;;;28.85;;
30398;SDS011;17195;50.838;7.214;2023-01-26T02:44:26;87.47;;;29.60;;
30398;SDS011;17195;50.838;7.214;2023-01-26T02:46:53;93.82;;;29.40;;
30398;SDS011;17195;50.838;7.214;2023-01-26T02:49:18;99.00;;;31.58;;
30398;SDS011;17195;50.838;7.214;2023-01-26T02:52:03;88.80;;;28.75;;
30398;SDS011;17195;50.838;7.214;2023-01-26T02:54:29;101.20;;;31.15;;
30398;SDS011;17195;50.838;7.214;2023-01-26T02:57:13;91.82;;;29.92;;
30398;SDS011;17195;50.838;7.214;2023-01-26T02:59:39;92.53;;;31.65;;
30398;SDS011;17195;50.838;7.214;2023-01-26T03:02:04;94.05;;;31.67;;
30398;SDS011;17195;50.838;7.214;2023-01-26T03:04:30;89.63;;;28.75;;
30398;SDS011;17195;50.838;7.214;2023-01-26T03:06:56;88.47;;;29.67;;
30398;SDS011;17195;50.838;7.214;2023-01-26T03:09:21;89.07;;;30.48;;
30398;SDS011;17195;50.838;7.214;2023-01-26T03:11:47;86.35;;;29.60;;
30398;SDS011;17195;50.838;7.214;2023-01-26T03:14:13;83.68;;;29.50;;
30398;SDS011;17195;50.838;7.214;2023-01-26T03:16:39;89.75;;;28.20;;
30398;SDS011;17195;50.838;7.214;2023-01-26T03:19:06;95.05;;;30.73;;
30398;SDS011;17195;50.838;7.214;2023-01-26T03:21:33;92.70;;;29.88;;
30398;SDS011;17195;50.838;7.214;2023-01-26T03:24:17;91.55;;;31.60;;
30398;SDS011;17195;50.838;7.214;2023-01-26T03:27:01;94.47;;;30.37;;
30398;SDS011;17195;50.838;7.214;2023-01-26T03:29:46;93.00;;;29.52;;
30398;SDS011;17195;50.838;7.214;2023-01-26T03:32:11;92.07;;;30.63;;
30398;SDS011;17195;50.838;7.214;2023-01-26T03:34:37;89.32;;;30.48;;
30398;SDS011;17195;50.838;7.214;2023-01-26T03:37:03;84.13;;;28.33;;
30398;SDS011;17195;50.838;7.214;2023-01-26T03:39:29;93.68;;;29.40;;
30398;SDS011;17195;50.838;7.214;2023-01-26T03:42:13;91.65;;;29.95;;
30398;SDS011;17195;50.838;7.214;2023-01-26T03:44:57;92.00;;;30.65;;
30398;SDS011;17195;50.838;7.214;2023-01-26T03:47:42;91.15;;;30.17;;
30398;SDS011;17195;50.838;7.214;2023-01-26T03:50:26;98.80;;;31.77;;
30398;SDS011;17195;50.838;7.214;2023-01-26T03:53:11;96.20;;;30.77;;
30398;SDS011;17195;50.838;7.214;2023-01-26T03:56:00;93.13;;;32.38;;
30398;SDS011;17195;50.838;7.214;2023-01-26T03:58:45;87.63;;;29.92;;
30398;SDS011;17195;50.838;7.214;2023-01-26T04:01:15;92.15;;;29.58;;
30398;SDS011;17195;50.838;7.214;2023-01-26T04:03:48;98.38;;;33.72;;
30398;SDS011;17195;50.838;7.214;2023-01-26T04:06:35;91.90;;;30.38;;
30398;SDS011;17195;50.838;7.214;2023-01-26T04:09:20;87.93;;;29.13;;
30398;SDS011;17195;50.838;7.214;2023-01-26T04:11:46;91.20;;;29.75;;
30398;SDS011;17195;50.838;7.214;2023-01-26T04:14:12;88.43;;;29.10;;
30398;SDS011;17195;50.838;7.214;2023-01-26T04:16:58;94.53;;;29.98;;
30398;SDS011;17195;50.838;7.214;2023-01-26T04:19:43;90.18;;;30.65;;
30398;SDS011;17195;50.838;7.214;2023-01-26T04:22:27;94.38;;;29.98;;
30398;SDS011;17195;50.838;7.214;2023-01-26T04:24:53;89.22;;;28.02;;
30398;SDS011;17195;50.838;7.214;2023-01-26T04:27:18;91.28;;;30.48;;
30398;SDS011;17195;50.838;7.214;2023-01-26T04:29:45;85.78;;;29.63;;
30398;SDS011;17195;50.838;7.214;2023-01-26T04:32:10;83.78;;;29.77;;
30398;SDS011;17195;50.838;7.214;2023-01-26T04:34:36;87.35;;;28.75;;
30398;SDS011;17195;50.838;7.214;2023-01-26T04:37:01;90.82;;;31.02;;
30398;SDS011;17195;50.838;7.214;2023-01-26T04:39:27;91.28;;;28.67;;
30398;SDS011;17195;50.838;7.214;2023-01-26T04:41:52;85.15;;;27.80;;
30398;SDS011;17195;50.838;7.214;2023-01-26T04:44:18;88.93;;;29.58;;
30398;SDS011;17195;50.838;7.214;2023-01-26T04:46:43;81.60;;;28.48;;
30398;SDS011;17195;50.838;7.214;2023-01-26T04:49:11;85.78;;;28.63;;
30398;SDS011;17195;50.838;7.214;2023-01-26T04:51:36;82.80;;;29.10;;
30398;SDS011;17195;50.838;7.214;2023-01-26T04:54:02;91.50;;;29.30;;
30398;SDS011;17195;50.838;7.214;2023-01-26T04:56:28;82.85;;;29.35;;
30398;SDS011;17195;50.838;7.214;2023-01-26T04:58:57;75.75;;;26.13;;
30398;SDS011;17195;50.838;7.214;2023-01-26T05:01:24;82.97;;;28.55;;
30398;SDS011;17195;50.838;7.214;2023-01-26T05:03:50;84.40;;;30.08;;
30398;SDS011;17195;50.838;7.214;2023-01-26T05:06:15;77.93;;;27.15;;
30398;SDS011;17195;50.838;7.214;2023-01-26T05:08:41;82.35;;;27.60;;
30398;SDS011;17195;50.838;7.214;2023-01-26T05:11:06;82.35;;;26.40;;
30398;SDS011;17195;50.838;7.214;2023-01-26T05:13:32;76.63;;;27.83;;
30398;SDS011;17195;50.838;7.214;2023-01-26T05:16:00;79.25;;;26.33;;
30398;SDS011;17195;50.838;7.214;2023-01-26T05:18:26;74.50;;;26.48;;
30398;SDS011;17195;50.838;7.214;2023-01-26T05:20:52;77.75;;;26.42;;
30398;SDS011;17195;50.838;7.214;2023-01-26T05:23:18;70.72;;;25.92;;
30398;SDS011;17195;50.838;7.214;2023-01-26T05:25:43;69.85;;;25.38;;
30398;SDS011;17195;50.838;7.214;2023-01-26T05:28:09;83.93;;;25.98;;
30398;SDS011;17195;50.838;7.214;2023-01-26T05:30:34;65.75;;;24.40;;
30398;SDS011;17195;50.838;7.214;2023-01-26T05:33:00;64.68;;;23.80;;
30398;SDS011;17195;50.838;7.214;2023-01-26T05:35:27;73.78;;;23.90;;
30398;SDS011;17195;50.838;7.214;2023-01-26T05:44:07;64.68;;;21.77;;
30398;SDS011;17195;50.838;7.214;2023-01-26T05:46:33;63.28;;;22.73;;
30398;SDS011;17195;50.838;7.214;2023-01-26T05:48:59;60.38;;;22.65;;
30398;SDS011;17195;50.838;7.214;2023-01-26T05:51:24;61.53;;;21.95;;
30398;SDS011;17195;50.838;7.214;2023-01-26T05:53:49;62.97;;;23.38;;
30398;SDS011;17195;50.838;7.214;2023-01-26T05:56:15;59.05;;;22.45;;
30398;SDS011;17195;50.838;7.214;2023-01-26T05:58:40;52.92;;;20.35;;
30398;SDS011;17195;50.838;7.214;2023-01-26T06:01:06;53.97;;;20.73;;
30398;SDS011;17195;50.838;7.214;2023-01-26T06:03:32;49.15;;;20.30;;
30398;SDS011;17195;50.838;7.214;2023-01-26T06:05:58;50.30;;;21.25;;
30398;SDS011;17195;50.838;7.214;2023-01-26T06:08:23;45.80;;;19.27;;
30398;SDS011;17195;50.838;7.214;2023-01-26T06:10:49;48.55;;;19.70;;
30398;SDS011;17195;50.838;7.214;2023-01-26T06:13:14;48.70;;;19.33;;
30398;SDS011;17195;50.838;7.214;2023-01-26T06:15:40;52.10;;;21.38;;
30398;SDS011;17195;50.838;7.214;2023-01-26T06:18:06;54.38;;;19.50;;
30398;SDS011;17195;50.838;7.214;2023-01-26T06:20:32;53.10;;;21.70;;
30398;SDS011;17195;50.838;7.214;2023-01-26T06:23:00;48.38;;;21.70;;
30398;SDS011;17195;50.838;7.214;2023-01-26T06:25:26;52.42;;;20.33;;
30398;SDS011;17195;50.838;7.214;2023-01-26T06:27:55;50.17;;;19.90;;
30398;SDS011;17195;50.838;7.214;2023-01-26T06:30:21;52.25;;;21.45;;
30398;SDS011;17195;50.838;7.214;2023-01-26T06:32:47;65.68;;;25.40;;
30398;SDS011;17195;50.838;7.214;2023-01-26T06:35:12;52.80;;;19.50;;
30398;SDS011;17195;50.838;7.214;2023-01-26T06:37:38;52.20;;;21.00;;
30398;SDS011;17195;50.838;7.214;2023-01-26T06:40:03;47.95;;;20.52;;
30398;SDS011;17195;50.838;7.214;2023-01-26T06:42:29;44.45;;;17.92;;
30398;SDS011;17195;50.838;7.214;2023-01-26T06:44:55;47.90;;;19.20;;
30398;SDS011;17195;50.838;7.214;2023-01-26T06:47:22;47.80;;;19.42;;
30398;SDS011;17195;50.838;7.214;2023-01-26T06:49:48;54.80;;;19.33;;
30398;SDS011;17195;50.838;7.214;2023-01-26T06:52:29;43.45;;;18.27;;
30398;SDS011;17195;50.838;7.214;2023-01-26T06:54:56;51.90;;;19.08;;
30398;SDS011;17195;50.838;7.214;2023-01-26T06:57:24;49.83;;;19.55;;
30398;SDS011;17195;50.838;7.214;2023-01-26T06:59:49;53.53;;;20.25;;
30398;SDS011;17195;50.838;7.214;2023-01-26T07:02:18;45.30;;;19.38;;
30398;SDS011;17195;50.838;7.214;2023-01-26T07:04:45;50.55;;;19.60;;
30398;SDS011;17195;50.838;7.214;2023-01-26T07:07:12;46.60;;;19.00;;
30398;SDS011;17195;50.838;7.214;2023-01-26T07:09:38;44.67;;;19.35;;
30398;SDS011;17195;50.838;7.214;2023-01-26T07:12:04;51.25;;;19.48;;
30398;SDS011;17195;50.838;7.214;2023-01-26T07:14:30;49.22;;;19.88;;
30398;SDS011;17195;50.838;7.214;2023-01-26T07:16:56;49.35;;;19.92;;
30398;SDS011;17195;50.838;7.214;2023-01-26T07:19:21;50.95;;;19.38;;
30398;SDS011;17195;50.838;7.214;2023-01-26T07:21:47;53.92;;;20.48;;
30398;SDS011;17195;50.838;7.214;2023-01-26T07:24:13;51.58;;;22.77;;
30398;SDS011;17195;50.838;7.214;2023-01-26T07:26:38;56.63;;;21.17;;
30398;SDS011;17195;50.838;7.214;2023-01-26T07:29:04;50.20;;;21.23;;
30398;SDS011;17195;50.838;7.214;2023-01-26T07:31:29;54.20;;;20.08;;
30398;SDS011;17195;50.838;7.214;2023-01-26T07:33:55;57.30;;;21.05;;
30398;SDS011;17195;50.838;7.214;2023-01-26T07:36:21;53.88;;;21.17;;
30398;SDS011;17195;50.838;7.214;2023-01-26T07:38:46;49.95;;;20.08;;
30398;SDS011;17195;50.838;7.214;2023-01-26T07:41:12;49.33;;;20.85;;
30398;SDS011;17195;50.838;7.214;2023-01-26T07:43:38;51.65;;;21.45;;
30398;SDS011;17195;50.838;7.214;2023-01-26T07:46:05;50.50;;;20.60;;
30398;SDS011;17195;50.838;7.214;2023-01-26T07:48:31;51.03;;;20.83;;
30398;SDS011;17195;50.838;7.214;2023-01-26T07:50:58;43.75;;;18.67;;
30398;SDS011;17195;50.838;7.214;2023-01-26T07:53:25;51.55;;;19.90;;
30398;SDS011;17195;50.838;7.214;2023-01-26T07:55:53;50.42;;;19.48;;
30398;SDS011;17195;50.838;7.214;2023-01-26T07:58:20;50.15;;;21.23;;
30398;SDS011;17195;50.838;7.214;2023-01-26T08:00:45;45.22;;;19.27;;
30398;SDS011;17195;50.838;7.214;2023-01-26T08:03:11;55.85;;;21.02;;
30398;SDS011;17195;50.838;7.214;2023-01-26T08:05:37;46.60;;;20.02;;
30398;SDS011;17195;50.838;7.214;2023-01-26T08:08:03;45.03;;;18.48;;
30398;SDS011;17195;50.838;7.214;2023-01-26T08:10:29;47.13;;;19.27;;
30398;SDS011;17195;50.838;7.214;2023-01-26T08:12:57;42.90;;;18.45;;
30398;SDS011;17195;50.838;7.214;2023-01-26T08:15:24;47.20;;;19.13;;
30398;SDS011;17195;50.838;7.214;2023-01-26T08:17:49;59.72;;;23.60;;
30398;SDS011;17195;50.838;7.214;2023-01-26T08:20:15;64.28;;;27.08;;
30398;SDS011;17195;50.838;7.214;2023-01-26T08:22:40;46.85;;;18.80;;
30398;SDS011;17195;50.838;7.214;2023-01-26T08:25:06;64.30;;;26.10;;
30398;SDS011;17195;50.838;7.214;2023-01-26T08:27:32;46.65;;;19.67;;
30398;SDS011;17195;50.838;7.214;2023-01-26T08:29:57;48.35;;;19.25;;
30398;SDS011;17195;50.838;7.214;2023-01-26T08:32:23;51.70;;;20.25;;
30398;SDS011;17195;50.838;7.214;2023-01-26T08:34:49;42.95;;;19.42;;
30398;SDS011;17195;50.838;7.214;2023-01-26T08:37:14;49.38;;;20.95;;
30398;SDS011;17195;50.838;7.214;2023-01-26T08:39:40;48.53;;;21.00;;
30398;SDS011;17195;50.838;7.214;2023-01-26T08:42:05;45.97;;;19.55;;
30398;SDS011;17195;50.838;7.214;2023-01-26T08:44:31;50.85;;;20.73;;
30398;SDS011;17195;50.838;7.214;2023-01-26T08:46:57;50.88;;;19.98;;
30398;SDS011;17195;50.838;7.214;2023-01-26T08:49:22;52.05;;;18.90;;
30398;SDS011;17195;50.838;7.214;2023-01-26T08:51:48;48.50;;;19.00;;
30398;SDS011;17195;50.838;7.214;2023-01-26T08:54:13;49.67;;;19.58;;
30398;SDS011;17195;50.838;7.214;2023-01-26T08:56:39;47.47;;;18.30;;
30398;SDS011;17195;50.838;7.214;2023-01-26T08:59:04;50.00;;;20.90;;
30398;SDS011;17195;50.838;7.214;2023-01-26T09:01:30;53.03;;;19.90;;
30398;SDS011;17195;50.838;7.214;2023-01-26T09:03:55;46.22;;;19.25;;
30398;SDS011;17195;50.838;7.214;2023-01-26T09:06:22;45.75;;;19.33;;
30398;SDS011;17195;50.838;7.214;2023-01-26T09:08:47;57.05;;;20.48;;
30398;SDS011;17195;50.838;7.214;2023-01-26T09:11:13;54.17;;;20.55;;
30398;SDS011;17195;50.838;7.214;2023-01-26T09:13:39;52.45;;;20.17;;
30398;SDS011;17195;50.838;7.214;2023-01-26T09:16:05;49.70;;;19.52;;
30398;SDS011;17195;50.838;7.214;2023-01-26T09:18:33;52.90;;;20.73;;
30398;SDS011;17195;50.838;7.214;2023-01-26T09:21:05;54.83;;;21.33;;
30398;SDS011;17195;50.838;7.214;2023-01-26T09:23:33;56.95;;;20.83;;
30398;SDS011;17195;50.838;7.214;2023-01-26T09:25:59;59.30;;;21.58;;
30398;SDS011;17195;50.838;7.214;2023-01-26T09:28:24;51.00;;;21.00;;
30398;SDS011;17195;50.838;7.214;2023-01-26T09:30:50;56.15;;;21.42;;
30398;SDS011;17195;50.838;7.214;2023-01-26T09:33:16;59.65;;;22.55;;
30398;SDS011;17195;50.838;7.214;2023-01-26T09:35:41;56.95;;;21.52;;
30398;SDS011;17195;50.838;7.214;2023-01-26T09:38:07;55.55;;;21.13;;
30398;SDS011;17195;50.838;7.214;2023-01-26T09:43:37;50.58;;;20.58;;
30398;SDS011;17195;50.838;7.214;2023-01-26T09:49:14;56.15;;;22.60;;
30398;SDS011;17195;50.838;7.214;2023-01-26T09:51:52;58.47;;;22.98;;
30398;SDS011;17195;50.838;7.214;2023-01-26T09:54:34;50.55;;;21.20;;
30398;SDS011;17195;50.838;7.214;2023-01-26T09:57:09;51.08;;;21.92;;
30398;SDS011;17195;50.838;7.214;2023-01-26T09:59:43;53.42;;;21.60;;
30398;SDS011;17195;50.838;7.214;2023-01-26T10:07:57;67.85;;;25.23;;
30398;SDS011;17195;50.838;7.214;2023-01-26T10:10:25;62.22;;;25.20;;
30398;SDS011;17195;50.838;7.214;2023-01-26T10:12:56;62.58;;;24.42;;
30398;SDS011;17195;50.838;7.214;2023-01-26T10:15:27;64.38;;;25.10;;
30398;SDS011;17195;50.838;7.214;2023-01-26T10:17:53;64.82;;;25.30;;
30398;SDS011;17195;50.838;7.214;2023-01-26T10:20:30;65.13;;;26.63;;
30398;SDS011;17195;50.838;7.214;2023-01-26T10:23:21;74.75;;;27.90;;
30398;SDS011;17195;50.838;7.214;2023-01-26T10:28:33;69.30;;;24.33;;
30398;SDS011;17195;50.838;7.214;2023-01-26T10:31:01;74.10;;;28.65;;
30398;SDS011;17195;50.838;7.214;2023-01-26T10:33:34;69.95;;;25.52;;
30398;SDS011;17195;50.838;7.214;2023-01-26T10:36:02;79.13;;;28.17;;
30398;SDS011;17195;50.838;7.214;2023-01-26T10:41:05;73.50;;;27.30;;
30398;SDS011;17195;50.838;7.214;2023-01-26T10:43:54;74.85;;;27.02;;
30398;SDS011;17195;50.838;7.214;2023-01-26T10:46:29;77.28;;;27.35;;
30398;SDS011;17195;50.838;7.214;2023-01-26T10:48:56;84.65;;;30.40;;
30398;SDS011;17195;50.838;7.214;2023-01-26T10:51:28;91.95;;;30.02;;
30398;SDS011;17195;50.838;7.214;2023-01-26T11:00:05;83.22;;;29.60;;
30398;SDS011;17195;50.838;7.214;2023-01-26T11:04:40;80.10;;;30.02;;
30398;SDS011;17195;50.838;7.214;2023-01-26T11:07:32;79.05;;;28.27;;
30398;SDS011;17195;50.838;7.214;2023-01-26T11:13:21;81.93;;;29.38;;
30398;SDS011;17195;50.838;7.214;2023-01-26T11:15:47;76.90;;;30.35;;
30398;SDS011;17195;50.838;7.214;2023-01-26T11:23:56;75.78;;;27.60;;
30398;SDS011;17195;50.838;7.214;2023-01-26T11:26:49;69.18;;;27.00;;
30398;SDS011;17195;50.838;7.214;2023-01-26T11:32:16;68.28;;;27.40;;
30398;SDS011;17195;50.838;7.214;2023-01-26T11:37:34;73.25;;;28.25;;
30398;SDS011;17195;50.838;7.214;2023-01-26T11:43:26;70.68;;;27.42;;
30398;SDS011;17195;50.838;7.214;2023-01-26T11:46:06;70.43;;;25.52;;
30398;SDS011;17195;50.838;7.214;2023-01-26T11:59:58;65.50;;;25.58;;
30398;SDS011;17195;50.838;7.214;2023-01-26T12:02:38;70.35;;;24.40;;
30398;SDS011;17195;50.838;7.214;2023-01-26T12:05:13;65.75;;;25.08;;
30398;SDS011;17195;50.838;7.214;2023-01-26T12:10:22;70.78;;;26.67;;
30398;SDS011;17195;50.838;7.214;2023-01-26T12:13:12;74.35;;;26.92;;
30398;SDS011;17195;50.838;7.214;2023-01-26T12:15:51;74.05;;;26.38;;
30398;SDS011;17195;50.838;7.214;2023-01-26T12:21:20;65.68;;;25.83;;
30398;SDS011;17195;50.838;7.214;2023-01-26T12:24:00;69.75;;;26.05;;
30398;SDS011;17195;50.838;7.214;2023-01-26T12:26:29;68.07;;;26.60;;
30398;SDS011;17195;50.838;7.214;2023-01-26T12:34:22;72.72;;;25.58;;
30398;SDS011;17195;50.838;7.214;2023-01-26T12:39:33;70.28;;;24.50;;
30398;SDS011;17195;50.838;7.214;2023-01-26T12:45:03;69.32;;;24.67;;
30398;SDS011;17195;50.838;7.214;2023-01-26T12:47:42;61.95;;;22.90;;
30398;SDS011;17195;50.838;7.214;2023-01-26T12:50:37;70.80;;;25.70;;
30398;SDS011;17195;50.838;7.214;2023-01-26T12:53:12;64.97;;;24.60;;
30398;SDS011;17195;50.838;7.214;2023-01-26T12:55:51;64.82;;;24.05;;
30398;SDS011;17195;50.838;7.214;2023-01-26T12:58:30;75.18;;;25.67;;
30398;SDS011;17195;50.838;7.214;2023-01-26T13:03:36;66.57;;;25.17;;
30398;SDS011;17195;50.838;7.214;2023-01-26T13:06:29;71.53;;;25.00;;
30398;SDS011;17195;50.838;7.214;2023-01-26T13:14:25;72.90;;;26.80;;
30398;SDS011;17195;50.838;7.214;2023-01-26T13:24:44;66.82;;;24.05;;
30398;SDS011;17195;50.838;7.214;2023-01-26T13:29:58;71.38;;;26.23;;
30398;SDS011;17195;50.838;7.214;2023-01-26T13:34:50;70.82;;;25.90;;
30398;SDS011;17195;50.838;7.214;2023-01-26T13:37:40;73.13;;;27.33;;
30398;SDS011;17195;50.838;7.214;2023-01-26T13:42:46;63.13;;;25.95;;
30398;SDS011;17195;50.838;7.214;2023-01-26T13:45:31;58.20;;;22.90;;
30398;SDS011;17195;50.838;7.214;2023-01-26T13:48:01;65.40;;;24.58;;
30398;SDS011;17195;50.838;7.214;2023-01-26T13:50:32;61.83;;;23.55;;
30398;SDS011;17195;50.838;7.214;2023-01-26T13:53:22;63.65;;;23.63;;
30398;SDS011;17195;50.838;7.214;2023-01-26T13:55:57;59.63;;;24.38;;
30398;SDS011;17195;50.838;7.214;2023-01-26T13:58:23;63.10;;;24.02;;
30398;SDS011;17195;50.838;7.214;2023-01-26T14:01:23;61.22;;;24.90;;
30398;SDS011;17195;50.838;7.214;2023-01-26T14:03:42;61.67;;;25.20;;
30398;SDS011;17195;50.838;7.214;2023-01-26T14:06:27;56.60;;;22.90;;
30398;SDS011;17195;50.838;7.214;2023-01-26T14:08:55;55.70;;;21.88;;
30398;SDS011;17195;50.838;7.214;2023-01-26T14:11:22;61.35;;;24.67;;
30398;SDS011;17195;50.838;7.214;2023-01-26T14:13:54;60.75;;;23.23;;
30398;SDS011;17195;50.838;7.214;2023-01-26T14:16:23;62.08;;;23.13;;
30398;SDS011;17195;50.838;7.214;2023-01-26T14:18:50;55.17;;;20.60;;
30398;SDS011;17195;50.838;7.214;2023-01-26T14:21:17;54.55;;;22.17;;
30398;SDS011;17195;50.838;7.214;2023-01-26T14:23:45;50.50;;;21.60;;
30398;SDS011;17195;50.838;7.214;2023-01-26T14:26:20;53.45;;;19.60;;
30398;SDS011;17195;50.838;7.214;2023-01-26T14:28:56;45.60;;;19.85;;
30398;SDS011;17195;50.838;7.214;2023-01-26T14:31:24;52.90;;;20.48;;
30398;SDS011;17195;50.838;7.214;2023-01-26T14:33:52;52.85;;;20.98;;
30398;SDS011;17195;50.838;7.214;2023-01-26T14:36:22;53.58;;;21.10;;
30398;SDS011;17195;50.838;7.214;2023-01-26T14:38:50;51.95;;;21.45;;
30398;SDS011;17195;50.838;7.214;2023-01-26T14:41:21;50.78;;;20.85;;
30398;SDS011;17195;50.838;7.214;2023-01-26T14:43:51;52.45;;;20.35;;
30398;SDS011;17195;50.838;7.214;2023-01-26T14:46:43;50.30;;;20.38;;
30398;SDS011;17195;50.838;7.214;2023-01-26T14:49:16;51.83;;;20.77;;
30398;SDS011;17195;50.838;7.214;2023-01-26T14:51:58;53.20;;;22.63;;
30398;SDS011;17195;50.838;7.214;2023-01-26T14:54:26;52.58;;;22.63;;
30398;SDS011;17195;50.838;7.214;2023-01-26T14:56:54;52.97;;;20.83;;
30398;SDS011;17195;50.838;7.214;2023-01-26T14:59:35;54.25;;;21.60;;
30398;SDS011;17195;50.838;7.214;2023-01-26T15:02:14;51.05;;;22.27;;
30398;SDS011;17195;50.838;7.214;2023-01-26T15:04:56;51.72;;;21.33;;
30398;SDS011;17195;50.838;7.214;2023-01-26T15:07:45;47.92;;;20.02;;
30398;SDS011;17195;50.838;7.214;2023-01-26T15:10:24;52.55;;;21.35;;
30398;SDS011;17195;50.838;7.214;2023-01-26T15:13:39;53.70;;;21.67;;
30398;SDS011;17195;50.838;7.214;2023-01-26T15:15:41;54.30;;;22.42;;
30398;SDS011;17195;50.838;7.214;2023-01-26T15:20:38;55.00;;;22.30;;
30398;SDS011;17195;50.838;7.214;2023-01-26T15:25:50;54.70;;;19.58;;
30398;SDS011;17195;50.838;7.214;2023-01-26T15:28:17;46.80;;;20.80;;
30398;SDS011;17195;50.838;7.214;2023-01-26T15:30:51;46.95;;;20.05;;
30398;SDS011;17195;50.838;7.214;2023-01-26T15:33:39;49.03;;;20.45;;
30398;SDS011;17195;50.838;7.214;2023-01-26T15:39:01;46.80;;;19.95;;
30398;SDS011;17195;50.838;7.214;2023-01-26T15:41:38;41.90;;;19.02;;
30398;SDS011;17195;50.838;7.214;2023-01-26T15:44:17;46.00;;;18.92;;
30398;SDS011;17195;50.838;7.214;2023-01-26T15:46:44;44.85;;;20.23;;
30398;SDS011;17195;50.838;7.214;2023-01-26T15:49:10;45.78;;;20.75;;
30398;SDS011;17195;50.838;7.214;2023-01-26T15:51:36;40.20;;;18.70;;
30398;SDS011;17195;50.838;7.214;2023-01-26T15:54:02;41.35;;;18.08;;
30398;SDS011;17195;50.838;7.214;2023-01-26T15:56:28;47.45;;;19.17;;
30398;SDS011;17195;50.838;7.214;2023-01-26T15:58:54;43.92;;;19.05;;
30398;SDS011;17195;50.838;7.214;2023-01-26T16:01:20;44.75;;;18.50;;
30398;SDS011;17195;50.838;7.214;2023-01-26T16:03:47;41.00;;;18.63;;
30398;SDS011;17195;50.838;7.214;2023-01-26T16:06:29;44.30;;;19.13;;
30398;SDS011;17195;50.838;7.214;2023-01-26T16:08:56;41.58;;;17.73;;
30398;SDS011;17195;50.838;7.214;2023-01-26T16:11:27;39.20;;;17.45;;
30398;SDS011;17195;50.838;7.214;2023-01-26T16:13:55;41.50;;;18.70;;
30398;SDS011;17195;50.838;7.214;2023-01-26T16:16:21;41.08;;;17.63;;
30398;SDS011;17195;50.838;7.214;2023-01-26T16:18:51;36.38;;;16.10;;
30398;SDS011;17195;50.838;7.214;2023-01-26T16:21:21;32.55;;;15.63;;
30398;SDS011;17195;50.838;7.214;2023-01-26T16:23:48;36.50;;;17.00;;
30398;SDS011;17195;50.838;7.214;2023-01-26T16:26:15;37.67;;;17.00;;
30398;SDS011;17195;50.838;7.214;2023-01-26T16:28:41;27.80;;;14.63;;
30398;SDS011;17195;50.838;7.214;2023-01-26T16:31:14;30.80;;;15.07;;